createdAt,value
2023-04-27T00:02:11.490Z,4.83
2023-04-27T00:04:38.681Z,4.80
2023-04-27T00:07:08.345Z,4.78
2023-04-27T00:09:38.102Z,4.76
2023-04-27T00:12:07.545Z,4.73
2023-04-27T00:14:34.636Z,4.71
2023-04-27T00:17:01.663Z,4.68
2023-04-27T00:19:29.783Z,4.66
2023-04-27T00:21:58.778Z,4.65
2023-04-27T00:24:25.853Z,4.65
2023-04-27T00:26:52.884Z,4.63
2023-04-27T00:29:19.917Z,4.62
2023-04-27T00:31:47.015Z,4.61
2023-04-27T00:34:14.042Z,4.62
2023-04-27T00:36:41.098Z,4.61
2023-04-27T00:39:08.130Z,4.61
2023-04-27T00:41:35.196Z,4.61
2023-04-27T00:44:02.225Z,4.61
2023-04-27T00:46:29.265Z,4.60
2023-04-27T00:48:56.306Z,4.59
2023-04-27T00:51:23.368Z,4.56
2023-04-27T00:53:50.418Z,4.55
2023-04-27T00:56:17.426Z,4.54
2023-04-27T00:58:44.489Z,4.53
2023-04-27T01:01:11.587Z,4.52
2023-04-27T01:03:38.834Z,4.52
2023-04-27T01:06:05.982Z,4.50
2023-04-27T01:08:33.040Z,4.49
2023-04-27T01:11:00.028Z,4.47
2023-04-27T01:13:27.048Z,4.45
2023-04-27T01:15:54.070Z,4.44
2023-04-27T01:18:21.071Z,4.45
2023-04-27T01:20:48.098Z,4.45
2023-04-27T01:23:17.085Z,4.44
2023-04-27T01:25:44.642Z,4.45
2023-04-27T01:28:11.642Z,4.44
2023-04-27T01:30:38.676Z,4.44
2023-04-27T01:33:05.737Z,4.44
2023-04-27T01:35:32.759Z,4.43
2023-04-27T01:38:00.004Z,4.40
2023-04-27T01:40:27.096Z,4.38
2023-04-27T01:42:54.142Z,4.37
2023-04-27T01:45:21.234Z,4.36
2023-04-27T01:47:48.276Z,4.36
2023-04-27T01:50:15.361Z,4.37
2023-04-27T01:52:42.434Z,4.37
2023-04-27T01:55:09.472Z,4.35
2023-04-27T01:57:36.465Z,4.36
2023-04-27T02:00:03.493Z,4.35
2023-04-27T02:02:30.683Z,4.33
2023-04-27T02:04:57.829Z,4.31
2023-04-27T02:07:24.806Z,4.30
2023-04-27T02:09:51.821Z,4.31
2023-04-27T02:12:18.806Z,4.30
2023-04-27T02:14:45.809Z,4.30
2023-04-27T02:17:12.812Z,4.30
2023-04-27T02:19:39.823Z,4.29
2023-04-27T02:22:07.009Z,4.31
2023-04-27T02:24:34.017Z,4.31
2023-04-27T02:27:01.020Z,4.33
2023-04-27T02:29:28.026Z,4.31
2023-04-27T02:31:55.520Z,4.32
2023-04-27T02:34:22.566Z,4.32
2023-04-27T02:36:49.599Z,4.32
2023-04-27T02:39:16.634Z,4.32
2023-04-27T02:41:43.658Z,4.32
2023-04-27T02:44:10.723Z,4.32
2023-04-27T02:46:37.762Z,4.32
2023-04-27T02:49:04.817Z,4.32
2023-04-27T02:51:31.817Z,4.31
2023-04-27T02:53:58.875Z,4.30
2023-04-27T02:56:25.891Z,4.28
2023-04-27T02:58:53.314Z,4.28
2023-04-27T03:01:20.417Z,4.27
2023-04-27T03:03:47.726Z,4.27
2023-04-27T03:06:14.839Z,4.27
2023-04-27T03:08:41.846Z,4.27
2023-04-27T03:11:08.898Z,4.27
2023-04-27T03:13:35.914Z,4.27
2023-04-27T03:16:03.012Z,4.25
2023-04-27T03:18:30.051Z,4.24
2023-04-27T03:20:57.087Z,4.23
2023-04-27T03:23:24.097Z,4.22
2023-04-27T03:25:51.100Z,4.22
2023-04-27T03:28:18.122Z,4.21
2023-04-27T03:30:45.153Z,4.19
2023-04-27T03:33:12.233Z,4.18
2023-04-27T03:35:39.314Z,4.17
2023-04-27T03:38:06.340Z,4.17
2023-04-27T03:40:33.369Z,4.14
2023-04-27T03:43:00.394Z,4.12
2023-04-27T03:45:27.429Z,4.11
2023-04-27T03:47:54.507Z,4.10
2023-04-27T03:50:21.626Z,4.08
2023-04-27T03:52:48.661Z,4.06
2023-04-27T03:55:15.672Z,4.05
2023-04-27T03:57:42.690Z,4.04
2023-04-27T04:00:09.706Z,4.01
2023-04-27T04:02:37.285Z,4.01
2023-04-27T04:05:04.476Z,3.98
2023-04-27T04:07:31.612Z,3.96
2023-04-27T04:09:58.673Z,3.95
2023-04-27T04:12:25.667Z,3.91
2023-04-27T04:14:52.695Z,3.87
2023-04-27T04:17:19.713Z,3.86
2023-04-27T04:19:46.740Z,3.84
2023-04-27T04:22:13.757Z,3.82
2023-04-27T04:24:40.818Z,3.79
2023-04-27T04:27:07.830Z,3.77
2023-04-27T04:29:34.836Z,3.74
2023-04-27T04:32:01.892Z,3.73
2023-04-27T04:34:28.890Z,3.70
2023-04-27T04:36:55.906Z,3.69
2023-04-27T04:39:22.938Z,3.67
2023-04-27T04:41:49.975Z,3.65
2023-04-27T04:44:17.059Z,3.64
2023-04-27T04:46:44.201Z,3.62
2023-04-27T04:49:11.444Z,3.61
2023-04-27T04:51:39.029Z,3.59
2023-04-27T04:54:06.080Z,3.58
2023-04-27T04:56:33.131Z,3.58
2023-04-27T04:59:00.166Z,3.55
2023-04-27T05:01:27.483Z,3.56
2023-04-27T05:03:54.682Z,3.55
2023-04-27T05:06:21.850Z,3.54
2023-04-27T05:08:48.847Z,3.55
2023-04-27T05:11:15.942Z,3.54
2023-04-27T05:13:42.957Z,3.56
2023-04-27T05:16:10.048Z,3.55
2023-04-27T05:18:37.089Z,3.57
2023-04-27T05:21:04.106Z,3.58
2023-04-27T05:23:31.170Z,3.59
2023-04-27T05:25:58.260Z,3.62
2023-04-27T05:28:25.288Z,3.64
2023-04-27T05:30:52.317Z,3.68
2023-04-27T05:33:19.336Z,3.70
2023-04-27T05:35:46.333Z,3.75
2023-04-27T05:38:13.373Z,3.85
2023-04-27T05:40:40.389Z,3.98
2023-04-27T05:43:07.414Z,4.17
2023-04-27T05:45:34.534Z,4.37
2023-04-27T05:48:01.682Z,4.59
2023-04-27T05:50:28.834Z,4.81
2023-04-27T05:52:55.852Z,5.03
2023-04-27T05:55:22.865Z,5.24
2023-04-27T05:57:57.279Z,5.46
2023-04-27T06:00:31.567Z,5.68
2023-04-27T06:02:58.745Z,5.89
2023-04-27T06:05:25.966Z,6.11
2023-04-27T06:07:52.997Z,6.31
2023-04-27T06:10:20.018Z,6.50
2023-04-27T06:12:47.065Z,6.69
2023-04-27T06:15:14.079Z,6.87
2023-04-27T06:17:41.287Z,7.05
2023-04-27T06:20:08.429Z,7.24
2023-04-27T06:22:35.476Z,7.42
2023-04-27T06:25:02.561Z,7.59
2023-04-27T06:27:29.587Z,7.76
2023-04-27T06:29:56.625Z,7.92
2023-04-27T06:32:23.684Z,8.09
2023-04-27T06:34:50.689Z,8.26
2023-04-27T06:37:17.732Z,8.44
2023-04-27T06:39:44.730Z,8.58
2023-04-27T06:42:11.796Z,8.68
2023-04-27T06:44:38.840Z,8.73
2023-04-27T06:47:05.924Z,8.75
2023-04-27T06:49:32.971Z,8.75
2023-04-27T06:52:00.005Z,8.75
2023-04-27T06:54:27.052Z,8.73
2023-04-27T06:56:54.102Z,8.73
2023-04-27T06:59:21.146Z,8.73
2023-04-27T07:01:48.248Z,8.73
2023-04-27T07:04:15.613Z,8.76
2023-04-27T07:06:42.715Z,8.77
2023-04-27T07:09:19.909Z,8.81
2023-04-27T07:11:54.242Z,8.85
2023-04-27T07:14:21.316Z,8.90
2023-04-27T07:16:48.310Z,8.96
2023-04-27T07:19:15.453Z,9.01
2023-04-27T07:21:42.680Z,9.08
2023-04-27T07:24:09.706Z,9.14
2023-04-27T07:26:36.730Z,9.21
2023-04-27T07:29:14.660Z,9.28
2023-04-27T07:31:52.202Z,9.36
2023-04-27T07:34:19.461Z,9.42
2023-04-27T07:36:46.508Z,9.50
2023-04-27T07:39:13.640Z,9.59
2023-04-27T07:41:40.805Z,9.66
2023-04-27T07:44:07.818Z,9.75
2023-04-27T07:46:34.849Z,9.83
2023-04-27T07:49:02.230Z,9.91
2023-04-27T07:51:29.398Z,9.98
2023-04-27T07:53:56.425Z,10.07
2023-04-27T07:56:23.502Z,10.14
2023-04-27T07:58:50.529Z,10.22
2023-04-27T08:01:19.022Z,10.30
2023-04-27T08:03:48.061Z,10.40
2023-04-27T08:06:16.144Z,10.49
2023-04-27T08:08:43.328Z,10.58
2023-04-27T08:11:10.408Z,10.66
2023-04-27T08:13:37.445Z,10.76
2023-04-27T08:16:04.457Z,10.86
2023-04-27T08:18:31.479Z,10.96
2023-04-27T08:20:58.525Z,11.06
2023-04-27T08:23:25.980Z,11.18
2023-04-27T08:25:52.998Z,11.27
2023-04-27T08:28:20.036Z,11.37
2023-04-27T08:30:47.062Z,11.49
2023-04-27T08:33:14.120Z,11.59
2023-04-27T08:35:41.191Z,11.71
2023-04-27T08:38:08.235Z,11.80
2023-04-27T08:40:35.267Z,11.93
2023-04-27T08:43:02.299Z,12.03
2023-04-27T08:45:29.378Z,12.14
2023-04-27T08:47:56.406Z,12.24
2023-04-27T08:50:23.464Z,12.37
2023-04-27T08:52:50.502Z,12.49
2023-04-27T08:55:17.626Z,12.62
2023-04-27T08:57:44.622Z,12.74
2023-04-27T09:00:11.635Z,12.88
2023-04-27T09:02:38.843Z,13.01
2023-04-27T09:05:06.096Z,13.17
2023-04-27T09:07:33.169Z,13.30
2023-04-27T09:10:00.183Z,13.46
2023-04-27T09:12:27.236Z,13.62
2023-04-27T09:14:54.251Z,13.78
2023-04-27T09:17:21.279Z,13.95
2023-04-27T09:19:48.335Z,14.11
2023-04-27T09:22:15.372Z,14.30
2023-04-27T09:24:42.444Z,14.45
2023-04-27T09:27:09.542Z,14.62
2023-04-27T09:29:36.624Z,14.80
2023-04-27T09:32:03.764Z,14.94
2023-04-27T09:34:30.944Z,15.11
2023-04-27T09:36:58.023Z,15.27
2023-04-27T09:39:25.086Z,15.41
2023-04-27T09:41:52.138Z,15.57
2023-04-27T09:44:19.191Z,15.70
2023-04-27T09:46:46.205Z,15.84
2023-04-27T09:49:13.480Z,15.97
2023-04-27T09:51:40.623Z,16.11
2023-04-27T09:54:07.673Z,16.25
2023-04-27T09:56:34.737Z,16.40
2023-04-27T09:59:01.801Z,16.55
2023-04-27T10:01:28.967Z,16.70
2023-04-27T10:03:56.173Z,16.84
2023-04-27T10:06:23.326Z,17.01
2023-04-27T10:08:50.381Z,17.15
2023-04-27T10:11:17.404Z,17.29
2023-04-27T10:13:44.423Z,17.43
2023-04-27T10:18:02.037Z,17.78
2023-04-27T10:20:29.079Z,18.10
2023-04-27T10:22:56.139Z,18.41
2023-04-27T10:25:23.533Z,18.68
2023-04-27T10:27:50.582Z,18.93
2023-04-27T10:30:17.632Z,19.17
2023-04-27T10:32:44.688Z,19.34
2023-04-27T10:35:11.730Z,19.52
2023-04-27T10:37:38.799Z,19.73
2023-04-27T10:40:08.960Z,19.91
2023-04-27T10:42:35.992Z,20.08
2023-04-27T10:45:03.013Z,20.25
2023-04-27T10:47:30.123Z,20.37
2023-04-27T10:49:57.190Z,20.48
2023-04-27T10:52:24.208Z,20.58
2023-04-27T10:54:51.285Z,20.70
2023-04-27T10:57:18.326Z,20.79
2023-04-27T10:59:45.345Z,20.87
2023-04-27T11:02:13.285Z,20.92
2023-04-27T11:04:40.491Z,20.97
2023-04-27T11:07:07.609Z,21.03
2023-04-27T11:09:34.629Z,21.06
2023-04-27T11:12:01.694Z,21.04
2023-04-27T11:14:28.738Z,21.03
2023-04-27T11:16:55.765Z,20.93
2023-04-27T11:19:22.812Z,20.80
2023-04-27T11:21:49.887Z,20.67
2023-04-27T11:24:16.996Z,20.57
2023-04-27T11:26:44.033Z,20.46
2023-04-27T11:29:11.098Z,20.34
2023-04-27T11:31:38.236Z,20.19
2023-04-27T11:34:05.325Z,20.01
2023-04-27T11:36:32.364Z,19.79
2023-04-27T11:38:59.431Z,19.63
2023-04-27T11:41:26.437Z,19.54
2023-04-27T11:43:53.506Z,19.45
2023-04-27T11:46:20.581Z,19.39
2023-04-27T11:48:47.652Z,19.34
2023-04-27T11:51:14.714Z,19.30
2023-04-27T11:53:41.744Z,19.17
2023-04-27T11:56:08.814Z,18.99
2023-04-27T11:58:35.849Z,18.82
2023-04-27T12:01:02.883Z,18.66
2023-04-27T12:03:30.053Z,18.55
2023-04-27T12:06:01.757Z,18.45
2023-04-27T12:08:34.663Z,18.31
2023-04-27T12:11:01.670Z,18.23
2023-04-27T12:13:28.785Z,18.20
2023-04-27T12:15:55.813Z,18.18
2023-04-27T12:18:22.874Z,18.15
2023-04-27T12:20:49.898Z,18.14
2023-04-27T12:23:16.910Z,18.12
2023-04-27T12:25:43.954Z,18.13
2023-04-27T12:28:10.969Z,18.14
2023-04-27T12:30:38.034Z,18.12
2023-04-27T12:33:05.127Z,18.14
2023-04-27T12:35:32.309Z,18.14
2023-04-27T12:37:59.480Z,18.14
2023-04-27T12:40:26.496Z,18.11
2023-04-27T12:42:53.534Z,18.13
2023-04-27T12:45:20.553Z,18.12
2023-04-27T12:48:01.639Z,18.11
2023-04-27T12:50:30.739Z,18.12
2023-04-27T12:52:57.779Z,18.13
2023-04-27T12:55:33.065Z,18.12
2023-04-27T12:58:01.107Z,18.14
2023-04-27T13:00:28.170Z,18.16
2023-04-27T13:02:56.195Z,18.18
2023-04-27T13:05:23.397Z,18.17
2023-04-27T13:07:50.433Z,18.22
2023-04-27T13:10:17.470Z,18.22
2023-04-27T13:12:44.471Z,18.25
2023-04-27T13:15:11.520Z,18.28
2023-04-27T13:17:38.618Z,18.29
2023-04-27T13:20:05.728Z,18.32
2023-04-27T13:22:32.827Z,18.32
2023-04-27T13:24:59.881Z,18.34
2023-04-27T13:27:27.449Z,18.34
2023-04-27T13:29:54.476Z,18.38
2023-04-27T13:32:21.528Z,18.42
2023-04-27T13:34:48.591Z,18.46
2023-04-27T13:37:15.602Z,18.51
2023-04-27T13:39:42.646Z,18.54
2023-04-27T13:42:09.684Z,18.56
2023-04-27T13:44:36.701Z,18.61
2023-04-27T13:47:03.833Z,18.62
2023-04-27T13:49:30.958Z,18.65
2023-04-27T13:51:58.010Z,18.64
2023-04-27T13:54:25.008Z,18.56
2023-04-27T13:56:52.056Z,18.51
2023-04-27T13:59:19.126Z,18.51
2023-04-27T14:01:46.184Z,18.51
2023-04-27T14:04:13.285Z,18.55
2023-04-27T14:06:40.415Z,18.58
2023-04-27T14:09:07.465Z,18.56
2023-04-27T14:11:45.096Z,18.52
2023-04-27T14:14:15.884Z,18.52
2023-04-27T14:16:42.986Z,18.50
2023-04-27T14:19:10.135Z,18.49
2023-04-27T14:21:37.157Z,18.48
2023-04-27T14:24:04.215Z,18.50
2023-04-27T14:26:31.206Z,18.52
2023-04-27T14:28:58.747Z,18.49
2023-04-27T14:31:25.949Z,18.46
2023-04-27T14:33:53.060Z,18.48
2023-04-27T14:36:20.092Z,18.52
2023-04-27T14:38:47.129Z,18.52
2023-04-27T14:41:14.182Z,18.50
2023-04-27T14:43:41.221Z,18.52
2023-04-27T14:46:19.884Z,18.54
2023-04-27T14:48:48.114Z,18.50
2023-04-27T14:51:15.179Z,18.50
2023-04-27T14:53:42.213Z,18.46
2023-04-27T14:56:09.223Z,18.40
2023-04-27T14:58:36.336Z,18.36
2023-04-27T15:01:03.359Z,18.36
2023-04-27T15:03:30.703Z,18.39
2023-04-27T15:05:57.832Z,18.40
2023-04-27T15:08:24.834Z,18.46
2023-04-27T15:10:51.960Z,18.48
2023-04-27T15:13:19.008Z,18.52
2023-04-27T15:15:46.117Z,18.54
2023-04-27T15:18:13.238Z,18.56
2023-04-27T15:20:40.493Z,18.57
2023-04-27T15:23:07.539Z,18.59
2023-04-27T15:25:34.607Z,18.60
2023-04-27T15:28:01.671Z,18.60
2023-04-27T15:30:28.695Z,18.60
2023-04-27T15:32:55.879Z,18.62
2023-04-27T15:35:22.940Z,18.61
2023-04-27T15:37:49.949Z,18.60
2023-04-27T15:40:17.038Z,18.60
2023-04-27T15:42:44.081Z,18.58
2023-04-27T15:45:11.146Z,18.60
2023-04-27T15:47:38.461Z,18.59
2023-04-27T15:50:05.512Z,18.59
2023-04-27T15:52:32.535Z,18.60
2023-04-27T15:54:59.557Z,18.60
2023-04-27T15:57:26.586Z,18.63
2023-04-27T15:59:53.626Z,18.63
2023-04-27T16:02:20.776Z,18.65
2023-04-27T16:04:47.808Z,18.65
2023-04-27T16:07:14.864Z,18.67
2023-04-27T16:09:41.976Z,18.67
2023-04-27T16:12:09.050Z,18.66
2023-04-27T16:14:36.108Z,18.67
2023-04-27T16:17:03.209Z,18.65
2023-04-27T16:19:30.245Z,18.64
2023-04-27T16:21:57.266Z,18.61
2023-04-27T16:24:24.326Z,18.55
2023-04-27T16:26:51.353Z,18.55
2023-04-27T16:29:18.575Z,18.50
2023-04-27T16:31:45.716Z,18.44
2023-04-27T16:34:12.850Z,18.40
2023-04-27T16:36:39.884Z,18.44
2023-04-27T16:39:06.889Z,18.51
2023-04-27T16:41:33.936Z,18.65
2023-04-27T16:44:00.946Z,18.77
2023-04-27T16:46:28.044Z,18.92
2023-04-27T16:48:55.157Z,19.06
2023-04-27T16:51:22.698Z,19.19
2023-04-27T16:53:49.724Z,19.34
2023-04-27T16:56:16.751Z,19.49
2023-04-27T16:58:43.794Z,19.60
2023-04-27T17:01:10.855Z,19.71
2023-04-27T17:03:38.112Z,19.85
2023-04-27T17:06:05.282Z,19.96
2023-04-27T17:08:32.310Z,20.06
2023-04-27T17:10:59.332Z,20.16
2023-04-27T17:13:26.389Z,20.25
2023-04-27T17:15:53.477Z,20.33
2023-04-27T17:18:20.532Z,20.43
2023-04-27T17:20:47.580Z,20.51
2023-04-27T17:23:14.653Z,20.55
2023-04-27T17:25:41.664Z,20.56
2023-04-27T17:28:08.687Z,20.52
2023-04-27T17:30:35.726Z,20.44
2023-04-27T17:33:02.859Z,20.35
2023-04-27T17:35:29.952Z,20.23
2023-04-27T17:37:57.006Z,20.14
2023-04-27T17:40:24.039Z,20.02
2023-04-27T17:42:51.095Z,19.93
2023-04-27T17:45:18.171Z,19.83
2023-04-27T17:47:45.307Z,19.73
2023-04-27T17:50:12.418Z,19.64
2023-04-27T17:52:39.409Z,19.54
2023-04-27T17:55:06.951Z,19.45
2023-04-27T17:57:33.995Z,19.35
2023-04-27T18:00:01.046Z,19.25
2023-04-27T18:02:28.169Z,19.14
2023-04-27T18:04:55.345Z,19.04
2023-04-27T18:07:22.392Z,18.96
2023-04-27T18:09:49.407Z,18.86
2023-04-27T18:12:16.472Z,18.77
2023-04-27T18:14:43.506Z,18.67
2023-04-27T18:17:10.565Z,18.56
2023-04-27T18:19:37.644Z,18.46
2023-04-27T18:22:04.659Z,18.37
2023-04-27T18:24:31.753Z,18.29
2023-04-27T18:26:58.771Z,18.19
2023-04-27T18:29:25.832Z,18.09
2023-04-27T18:31:52.908Z,17.98
2023-04-27T18:34:19.961Z,17.90
2023-04-27T18:36:47.977Z,17.79
2023-04-27T18:39:16.148Z,17.69
2023-04-27T18:41:43.537Z,17.59
2023-04-27T18:44:10.557Z,17.49
2023-04-27T18:46:37.587Z,17.37
2023-04-27T18:49:04.604Z,17.27
2023-04-27T18:51:31.660Z,17.17
2023-04-27T18:53:58.703Z,17.07
2023-04-27T18:56:25.737Z,16.96
2023-04-27T18:58:52.769Z,16.86
2023-04-27T19:01:19.834Z,16.76
2023-04-27T19:03:47.014Z,16.66
2023-04-27T19:06:14.127Z,16.55
2023-04-27T19:08:41.180Z,16.44
2023-04-27T19:11:08.221Z,16.34
2023-04-27T19:13:35.276Z,16.24
2023-04-27T19:16:02.321Z,16.13
2023-04-27T19:18:29.436Z,16.01
2023-04-27T19:20:56.502Z,15.92
2023-04-27T19:23:23.540Z,15.82
2023-04-27T19:25:50.696Z,15.73
2023-04-27T19:28:18.840Z,15.63
2023-04-27T19:30:45.935Z,15.52
2023-04-27T19:33:13.042Z,15.41
2023-04-27T19:35:40.097Z,15.32
2023-04-27T19:38:07.151Z,15.23
2023-04-27T19:40:34.198Z,15.14
2023-04-27T19:43:01.204Z,15.03
2023-04-27T19:45:28.232Z,14.92
2023-04-27T19:47:55.318Z,14.84
2023-04-27T19:50:22.373Z,14.75
2023-04-27T19:52:49.459Z,14.64
2023-04-27T19:55:16.532Z,14.56
2023-04-27T19:57:43.606Z,14.45
2023-04-27T20:00:11.060Z,14.37
2023-04-27T20:02:38.363Z,14.29
2023-04-27T20:05:05.585Z,14.20
2023-04-27T20:07:33.006Z,14.10
2023-04-27T20:10:00.098Z,14.02
2023-04-27T20:12:47.355Z,13.95
2023-04-27T20:15:14.151Z,13.86
2023-04-27T20:17:41.199Z,13.77
2023-04-27T20:20:08.214Z,13.69
2023-04-27T20:22:35.254Z,13.60
2023-04-27T20:25:02.336Z,13.53
2023-04-27T20:27:29.357Z,13.44
2023-04-27T20:29:56.628Z,13.36
2023-04-27T20:32:23.645Z,13.30
2023-04-27T20:34:50.673Z,13.22
2023-04-27T20:37:17.710Z,13.15
2023-04-27T20:39:44.769Z,13.08
2023-04-27T20:42:11.830Z,13.02
2023-04-27T20:44:38.879Z,12.96
2023-04-27T20:47:05.926Z,12.89
2023-04-27T20:49:35.323Z,12.82
2023-04-27T20:52:02.818Z,12.75
2023-04-27T20:54:29.863Z,12.71
2023-04-27T20:56:56.933Z,12.63
2023-04-27T20:59:23.995Z,12.57
2023-04-27T21:01:51.027Z,12.52
2023-04-27T21:04:18.244Z,12.46
2023-04-27T21:06:45.537Z,12.40
2023-04-27T21:09:12.581Z,12.33
2023-04-27T21:11:39.598Z,12.27
2023-04-27T21:14:06.658Z,12.22
2023-04-27T21:16:34.064Z,12.17
2023-04-27T21:19:01.143Z,12.11
2023-04-27T21:21:28.224Z,12.05
2023-04-27T21:24:04.521Z,12.01
2023-04-27T21:26:35.096Z,11.94
2023-04-27T21:29:02.114Z,11.89
2023-04-27T21:31:29.238Z,11.86
2023-04-27T21:33:56.378Z,11.81
2023-04-27T21:36:23.405Z,11.77
2023-04-27T21:38:50.425Z,11.72
2023-04-27T21:41:17.514Z,11.68
2023-04-27T21:43:44.583Z,11.64
2023-04-27T21:46:11.620Z,11.60
2023-04-27T21:48:38.650Z,11.56
2023-04-27T21:51:05.762Z,11.52
2023-04-27T21:53:32.786Z,11.47
2023-04-27T21:55:59.841Z,11.41
2023-04-27T21:58:26.922Z,11.37
2023-04-27T22:00:54.282Z,11.33
2023-04-27T22:03:21.592Z,11.28
2023-04-27T22:05:49.055Z,11.24
2023-04-27T22:08:16.376Z,11.19
2023-04-27T22:10:43.422Z,11.13
2023-04-27T22:13:18.895Z,11.07
2023-04-27T22:15:46.652Z,11.04
2023-04-27T22:18:13.746Z,10.99
2023-04-27T22:20:40.801Z,10.96
2023-04-27T22:23:07.869Z,10.91
2023-04-27T22:25:34.905Z,10.87
2023-04-27T22:28:02.034Z,10.82
2023-04-27T22:30:29.051Z,10.78
2023-04-27T22:32:56.193Z,10.75
2023-04-27T22:35:27.255Z,10.70
2023-04-27T22:37:55.058Z,10.66
2023-04-27T22:40:22.149Z,10.62
2023-04-27T22:42:49.172Z,10.58
2023-04-27T22:45:16.216Z,10.55
2023-04-27T22:47:43.306Z,10.50
2023-04-27T22:50:10.389Z,10.45
2023-04-27T22:52:37.427Z,10.41
2023-04-27T22:55:04.499Z,10.38
2023-04-27T22:57:31.560Z,10.35
2023-04-27T22:59:58.581Z,10.33
2023-04-27T23:02:25.691Z,10.28
2023-04-27T23:04:52.802Z,10.26
2023-04-27T23:07:19.826Z,10.23
2023-04-27T23:09:46.876Z,10.19
2023-04-27T23:12:13.935Z,10.16
2023-04-27T23:14:41.017Z,10.14
2023-04-27T23:17:08.102Z,10.12
2023-04-27T23:19:35.155Z,10.08
2023-04-27T23:22:02.232Z,10.07
2023-04-27T23:24:29.283Z,10.05
2023-04-27T23:26:56.297Z,10.01
2023-04-27T23:29:23.381Z,10.01
2023-04-27T23:31:50.399Z,9.99
2023-04-27T23:34:17.700Z,9.97
2023-04-27T23:36:44.999Z,9.95
2023-04-27T23:39:12.012Z,9.94
2023-04-27T23:41:39.023Z,9.93
2023-04-27T23:44:06.089Z,9.90
2023-04-27T23:46:33.115Z,9.88
2023-04-27T23:49:00.125Z,9.87
2023-04-27T23:51:27.206Z,9.85
2023-04-27T23:53:54.258Z,9.83
2023-04-27T23:56:21.289Z,9.82
2023-04-27T23:58:48.339Z,9.81
